createdAt,value
2022-08-23T00:02:02.371Z,53.06
2022-08-23T00:04:34.941Z,53.07
2022-08-23T00:07:03.817Z,52.95
2022-08-23T00:09:31.944Z,53.16
2022-08-23T00:12:06.575Z,53.49
2022-08-23T00:14:37.306Z,53.26
2022-08-23T00:17:05.533Z,53.24
2022-08-23T00:19:33.670Z,53.07
2022-08-23T00:22:01.782Z,53.23
2022-08-23T00:24:29.927Z,53.04
2022-08-23T00:27:00.788Z,53.09
2022-08-23T00:29:31.303Z,53.18
2022-08-23T00:32:01.080Z,53.14
2022-08-23T00:34:29.405Z,53.21
2022-08-23T00:36:57.561Z,53.49
2022-08-23T00:39:25.778Z,53.19
2022-08-23T00:41:53.962Z,53.19
2022-08-23T00:44:41.318Z,53.06
2022-08-23T00:47:28.077Z,53.07
2022-08-23T00:49:57.803Z,53.15
2022-08-23T00:52:29.521Z,53.07
2022-08-23T00:54:58.103Z,53.18
2022-08-23T00:57:26.287Z,53.15
2022-08-23T00:59:54.477Z,53.07
2022-08-23T01:02:24.037Z,53.18
2022-08-23T01:04:55.885Z,53.08
2022-08-23T01:07:29.566Z,53.11
2022-08-23T01:09:58.939Z,53.14
2022-08-23T01:12:33.287Z,53.35
2022-08-23T01:15:02.980Z,53.06
2022-08-23T01:17:35.494Z,53.17
2022-08-23T01:20:06.195Z,53.14
2022-08-23T01:22:35.527Z,53.28
2022-08-23T01:25:08.911Z,53.01
2022-08-23T01:27:41.425Z,53.06
2022-08-23T01:30:14.989Z,53.01
2022-08-23T01:32:45.829Z,52.99
2022-08-23T01:35:14.534Z,53.41
2022-08-23T01:37:43.785Z,53.06
2022-08-23T01:40:14.633Z,53.15
2022-08-23T01:42:43.038Z,53.28
2022-08-23T01:45:13.959Z,53.14
2022-08-23T01:47:42.170Z,53.10
2022-08-23T01:50:11.377Z,52.94
2022-08-23T01:52:39.541Z,53.01
2022-08-23T01:55:18.274Z,53.48
2022-08-23T01:57:49.549Z,53.06
2022-08-23T02:00:19.341Z,53.18
2022-08-23T02:02:48.257Z,53.11
2022-08-23T02:05:19.037Z,53.08
2022-08-23T02:07:48.186Z,53.33
2022-08-23T02:10:19.532Z,53.13
2022-08-23T02:12:47.864Z,52.99
2022-08-23T02:15:17.942Z,53.10
2022-08-23T02:17:48.569Z,53.04
2022-08-23T02:20:17.322Z,53.02
2022-08-23T02:22:45.591Z,53.38
2022-08-23T02:25:14.483Z,53.06
2022-08-23T02:27:44.616Z,53.02
2022-08-23T02:30:15.359Z,53.13
2022-08-23T02:32:44.448Z,53.28
2022-08-23T02:35:13.445Z,52.93
2022-08-23T02:37:41.561Z,53.28
2022-08-23T02:40:11.172Z,53.32
2022-08-23T02:42:39.343Z,53.31
2022-08-23T02:45:09.738Z,53.16
2022-08-23T02:47:45.191Z,53.40
2022-08-23T02:50:19.182Z,53.19
2022-08-23T02:52:47.951Z,53.46
2022-08-23T02:55:16.356Z,53.12
2022-08-23T02:57:44.766Z,53.17
2022-08-23T03:00:16.675Z,53.29
2022-08-23T03:02:45.531Z,53.25
2022-08-23T03:05:14.439Z,53.12
2022-08-23T03:07:43.277Z,53.29
2022-08-23T03:10:15.044Z,53.29
2022-08-23T03:12:48.419Z,53.23
2022-08-23T03:15:18.068Z,53.17
2022-08-23T03:17:46.316Z,53.33
2022-08-23T03:20:14.654Z,53.14
2022-08-23T03:22:48.438Z,53.38
2022-08-23T03:25:22.763Z,53.41
2022-08-23T03:28:04.654Z,53.31
2022-08-23T03:30:35.259Z,53.30
2022-08-23T03:33:04.794Z,53.35
2022-08-23T03:35:33.125Z,53.17
2022-08-23T03:38:03.222Z,53.35
2022-08-23T03:40:31.803Z,53.16
2022-08-23T03:43:01.445Z,53.26
2022-08-23T03:45:31.040Z,53.25
2022-08-23T03:48:00.775Z,53.32
2022-08-23T03:50:29.133Z,53.50
2022-08-23T03:52:57.406Z,53.19
2022-08-23T03:55:26.097Z,53.15
2022-08-23T03:57:54.311Z,53.28
2022-08-23T04:00:23.114Z,53.31
2022-08-23T04:02:53.582Z,53.08
2022-08-23T04:05:24.294Z,53.25
2022-08-23T04:08:01.648Z,53.25
2022-08-23T04:10:30.126Z,53.32
2022-08-23T04:12:58.260Z,53.31
2022-08-23T04:15:26.554Z,53.35
2022-08-23T04:17:54.698Z,53.27
2022-08-23T04:20:26.273Z,53.27
2022-08-23T04:23:05.009Z,53.25
2022-08-23T04:25:40.362Z,53.30
2022-08-23T04:28:09.010Z,53.43
2022-08-23T04:30:37.211Z,53.30
2022-08-23T04:33:10.214Z,53.29
2022-08-23T04:35:41.493Z,53.33
2022-08-23T04:38:18.138Z,53.44
2022-08-23T04:41:11.796Z,53.29
2022-08-23T04:43:40.745Z,53.58
2022-08-23T04:46:10.322Z,53.51
2022-08-23T04:48:38.680Z,53.39
2022-08-23T04:51:08.209Z,53.62
2022-08-23T04:53:38.967Z,53.47
2022-08-23T04:56:30.565Z,53.63
2022-08-23T04:58:58.814Z,53.56
2022-08-23T05:01:27.842Z,53.60
2022-08-23T05:03:57.192Z,53.41
2022-08-23T05:06:28.827Z,53.51
2022-08-23T05:08:57.178Z,53.45
2022-08-23T05:11:25.594Z,53.07
2022-08-23T05:13:53.995Z,53.30
2022-08-23T05:16:23.609Z,53.13
2022-08-23T05:19:11.442Z,53.39
2022-08-23T05:21:45.925Z,53.41
2022-08-23T05:24:14.917Z,53.30
2022-08-23T05:26:45.102Z,53.38
2022-08-23T05:29:13.386Z,53.39
2022-08-23T05:31:46.873Z,53.50
2022-08-23T05:34:22.787Z,53.57
2022-08-23T05:36:59.780Z,53.76
2022-08-23T05:39:37.485Z,53.99
2022-08-23T05:42:14.274Z,53.98
2022-08-23T05:44:43.323Z,53.76
2022-08-23T05:47:15.083Z,53.95
2022-08-23T05:50:09.330Z,54.35
2022-08-23T05:52:40.121Z,54.11
2022-08-23T05:55:09.066Z,54.27
2022-08-23T05:57:53.042Z,54.46
2022-08-23T06:00:21.377Z,54.38
2022-08-23T06:03:01.812Z,54.57
2022-08-23T06:05:30.037Z,54.34
2022-08-23T06:08:02.074Z,54.65
2022-08-23T06:10:32.446Z,54.82
2022-08-23T06:13:10.443Z,54.67
2022-08-23T06:15:43.493Z,54.79
2022-08-23T06:18:13.626Z,54.95
2022-08-23T06:20:42.712Z,54.70
2022-08-23T06:23:17.092Z,54.75
2022-08-23T06:25:45.549Z,54.89
2022-08-23T06:28:16.026Z,54.99
2022-08-23T06:30:44.334Z,54.69
2022-08-23T06:33:20.812Z,54.97
2022-08-23T06:36:08.983Z,55.10
2022-08-23T06:39:11.235Z,55.15
2022-08-23T06:42:01.211Z,54.87
2022-08-23T06:44:31.495Z,55.44
2022-08-23T06:47:14.999Z,55.15
2022-08-23T06:49:51.129Z,55.34
2022-08-23T06:52:48.612Z,55.49
2022-08-23T06:55:27.670Z,55.36
2022-08-23T06:58:06.335Z,55.44
2022-08-23T07:01:35.039Z,55.41
2022-08-23T07:04:07.437Z,55.66
2022-08-23T07:06:54.327Z,55.55
2022-08-23T07:09:22.994Z,55.52
2022-08-23T07:11:52.804Z,55.48
2022-08-23T07:14:21.841Z,55.24
2022-08-23T07:16:51.501Z,55.55
2022-08-23T07:19:21.341Z,55.47
2022-08-23T07:21:49.982Z,55.31
2022-08-23T07:24:18.649Z,55.55
2022-08-23T07:26:47.677Z,55.63
2022-08-23T07:29:17.914Z,55.17
2022-08-23T07:31:47.323Z,55.27
2022-08-23T07:34:16.221Z,55.43
2022-08-23T07:36:45.137Z,55.53
2022-08-23T07:39:13.709Z,55.61
2022-08-23T07:41:42.218Z,55.72
2022-08-23T07:44:12.771Z,56.13
2022-08-23T07:46:49.184Z,55.90
2022-08-23T07:49:18.070Z,56.11
2022-08-23T07:51:49.504Z,56.04
2022-08-23T07:54:19.727Z,55.99
2022-08-23T07:56:54.295Z,56.27
2022-08-23T07:59:42.954Z,55.96
2022-08-23T08:02:31.171Z,56.27
2022-08-23T08:05:00.148Z,56.41
2022-08-23T08:07:28.530Z,56.29
2022-08-23T08:10:04.698Z,56.51
2022-08-23T08:12:33.485Z,56.62
2022-08-23T08:15:11.397Z,56.85
2022-08-23T08:17:42.946Z,56.80
2022-08-23T08:20:11.802Z,57.04
2022-08-23T08:22:59.006Z,57.27
2022-08-23T08:26:02.403Z,56.94
2022-08-23T08:28:31.582Z,57.52
2022-08-23T08:31:00.159Z,57.39
2022-08-23T08:33:30.963Z,57.33
2022-08-23T08:36:03.118Z,57.56
2022-08-23T08:38:38.763Z,57.67
2022-08-23T08:41:18.434Z,57.50
2022-08-23T08:43:54.121Z,57.53
2022-08-23T08:46:26.116Z,57.66
2022-08-23T08:48:58.346Z,57.64
2022-08-23T08:51:39.221Z,57.92
2022-08-23T08:54:10.457Z,58.02
2022-08-23T08:56:42.523Z,58.06
2022-08-23T08:59:24.750Z,58.22
2022-08-23T09:01:53.779Z,58.09
2022-08-23T09:04:34.853Z,58.47
2022-08-23T09:07:08.525Z,58.64
2022-08-23T09:09:49.228Z,58.82
2022-08-23T09:12:21.739Z,58.60
2022-08-23T09:15:02.733Z,58.75
2022-08-23T09:17:43.913Z,58.86
2022-08-23T09:20:15.367Z,58.50
2022-08-23T09:22:48.429Z,59.14
2022-08-23T09:25:25.813Z,59.00
2022-08-23T09:28:03.953Z,58.82
2022-08-23T09:30:50.322Z,59.10
2022-08-23T09:33:20.493Z,58.85
2022-08-23T09:36:05.269Z,58.88
2022-08-23T09:38:34.909Z,58.91
2022-08-23T09:41:17.990Z,58.93
2022-08-23T09:43:49.121Z,58.94
2022-08-23T09:46:26.657Z,59.25
2022-08-23T09:48:58.303Z,59.09
2022-08-23T09:51:35.304Z,58.84
2022-08-23T09:54:08.034Z,59.11
2022-08-23T09:56:38.691Z,59.27
2022-08-23T09:59:35.217Z,59.32
2022-08-23T10:02:16.744Z,59.29
2022-08-23T10:04:47.618Z,58.85
2022-08-23T10:07:26.114Z,59.49
2022-08-23T10:09:56.970Z,59.17
2022-08-23T10:12:25.812Z,59.35
2022-08-23T10:14:54.881Z,59.03
2022-08-23T10:17:30.596Z,59.33
2022-08-23T10:20:04.208Z,58.87
2022-08-23T10:22:41.089Z,59.07
2022-08-23T10:25:34.434Z,59.23
2022-08-23T10:28:39.394Z,58.67
2022-08-23T10:31:12.640Z,58.99
2022-08-23T10:33:44.337Z,59.30
2022-08-23T10:36:15.768Z,59.02
2022-08-23T10:38:47.878Z,58.90
2022-08-23T10:41:26.650Z,58.77
2022-08-23T10:43:59.221Z,58.66
2022-08-23T10:46:27.574Z,59.04
2022-08-23T10:48:57.985Z,58.66
2022-08-23T10:51:32.058Z,58.98
2022-08-23T10:54:06.328Z,59.37
2022-08-23T10:56:35.483Z,58.83
2022-08-23T10:59:05.776Z,58.87
2022-08-23T11:01:36.688Z,58.95
2022-08-23T11:04:06.571Z,58.75
2022-08-23T11:06:58.089Z,59.11
2022-08-23T11:09:58.204Z,58.90
2022-08-23T11:12:32.246Z,58.70
2022-08-23T11:15:12.885Z,58.54
2022-08-23T11:17:56.138Z,58.53
2022-08-23T11:21:02.186Z,58.44
2022-08-23T11:23:53.899Z,58.50
2022-08-23T11:27:06.720Z,58.36
2022-08-23T11:29:43.709Z,58.04
2022-08-23T11:32:43.954Z,58.23
2022-08-23T11:35:29.158Z,58.22
2022-08-23T11:38:03.852Z,58.38
2022-08-23T11:40:44.521Z,57.88
2022-08-23T11:43:23.458Z,58.04
2022-08-23T11:45:53.648Z,57.98
2022-08-23T11:48:24.502Z,57.82
2022-08-23T11:51:07.730Z,57.76
2022-08-23T11:53:43.745Z,57.75
2022-08-23T11:56:29.460Z,57.61
2022-08-23T11:59:08.982Z,57.79
2022-08-23T12:01:39.710Z,57.58
2022-08-23T12:04:11.649Z,57.66
2022-08-23T12:06:42.657Z,57.39
2022-08-23T12:09:56.033Z,57.57
2022-08-23T12:12:32.526Z,57.73
2022-08-23T12:15:06.750Z,57.51
2022-08-23T12:18:13.618Z,57.64
2022-08-23T12:20:41.902Z,57.28
2022-08-23T12:23:18.805Z,57.57
2022-08-23T12:25:47.114Z,57.34
2022-08-23T12:28:39.507Z,57.25
2022-08-23T12:31:15.858Z,57.20
2022-08-23T12:33:57.533Z,57.45
2022-08-23T12:36:31.741Z,57.92
2022-08-23T12:39:02.774Z,57.63
2022-08-23T12:41:32.144Z,57.68
2022-08-23T12:44:03.226Z,57.51
2022-08-23T12:46:37.951Z,57.39
2022-08-23T12:49:08.627Z,57.24
2022-08-23T12:51:43.014Z,57.75
2022-08-23T12:54:15.173Z,57.17
2022-08-23T12:56:45.957Z,57.22
2022-08-23T12:59:35.495Z,57.43
2022-08-23T13:02:04.326Z,57.11
2022-08-23T13:04:34.221Z,57.32
2022-08-23T13:07:04.795Z,57.49
2022-08-23T13:09:34.297Z,57.45
2022-08-23T13:12:02.711Z,57.45
2022-08-23T13:14:36.553Z,57.23
2022-08-23T13:17:15.913Z,57.38
2022-08-23T13:19:45.602Z,57.50
2022-08-23T13:22:14.891Z,57.36
2022-08-23T13:24:43.947Z,57.42
2022-08-23T13:27:18.264Z,57.67
2022-08-23T13:29:51.195Z,57.79
2022-08-23T13:32:30.469Z,57.85
2022-08-23T13:35:29.378Z,57.62
2022-08-23T13:37:59.489Z,57.91
2022-08-23T13:40:30.076Z,57.72
2022-08-23T13:42:59.618Z,57.96
2022-08-23T13:45:29.144Z,57.67
2022-08-23T13:47:59.185Z,58.10
2022-08-23T13:50:30.353Z,57.66
2022-08-23T13:53:15.372Z,57.75
2022-08-23T13:55:45.690Z,57.71
2022-08-23T13:58:15.265Z,57.72
2022-08-23T14:00:46.942Z,57.53
2022-08-23T14:03:24.238Z,57.42
2022-08-23T14:05:53.970Z,57.53
2022-08-23T14:08:22.309Z,57.45
2022-08-23T14:10:50.395Z,57.62
2022-08-23T14:13:18.670Z,57.22
2022-08-23T14:18:35.217Z,57.13
2022-08-23T14:21:06.271Z,57.03
2022-08-23T14:23:34.525Z,56.56
2022-08-23T14:26:02.609Z,57.13
2022-08-23T14:28:31.371Z,56.94
2022-08-23T14:30:59.581Z,56.97
2022-08-23T14:33:28.066Z,57.04
2022-08-23T14:35:57.365Z,56.84
2022-08-23T14:38:27.057Z,56.74
2022-08-23T14:40:57.656Z,56.84
2022-08-23T14:43:26.933Z,56.48
2022-08-23T14:45:55.234Z,56.70
2022-08-23T14:48:25.450Z,56.37
2022-08-23T14:50:53.627Z,56.46
2022-08-23T14:53:22.990Z,57.14
2022-08-23T14:56:12.317Z,56.76
2022-08-23T14:58:42.869Z,56.93
2022-08-23T15:01:11.613Z,56.88
2022-08-23T15:03:42.007Z,56.63
2022-08-23T15:06:10.391Z,56.64
2022-08-23T15:08:38.768Z,56.87
2022-08-23T15:14:00.139Z,56.92
2022-08-23T15:16:28.760Z,56.72
2022-08-23T15:18:56.951Z,56.54
2022-08-23T15:21:25.029Z,56.56
2022-08-23T15:23:53.199Z,56.64
2022-08-23T15:26:23.764Z,56.81
2022-08-23T15:28:52.126Z,56.64
2022-08-23T15:31:20.293Z,56.60
2022-08-23T15:33:49.230Z,56.56
2022-08-23T15:36:17.314Z,56.55
2022-08-23T15:38:47.749Z,56.85
2022-08-23T15:41:16.006Z,56.51
2022-08-23T15:43:46.259Z,56.57
2022-08-23T15:46:19.162Z,56.24
2022-08-23T15:48:49.686Z,56.37
2022-08-23T15:51:18.063Z,56.31
2022-08-23T15:53:46.176Z,56.61
2022-08-23T15:56:16.450Z,56.18
2022-08-23T15:58:45.986Z,56.42
2022-08-23T16:01:14.167Z,56.54
2022-08-23T16:03:43.874Z,56.57
2022-08-23T16:06:13.002Z,56.50
2022-08-23T16:08:42.329Z,56.46
2022-08-23T16:11:12.836Z,56.27
2022-08-23T16:13:45.467Z,56.18
2022-08-23T16:16:16.955Z,56.30
2022-08-23T16:18:45.207Z,56.26
2022-08-23T16:21:13.362Z,56.09
2022-08-23T16:23:43.122Z,56.33
2022-08-23T16:26:15.245Z,56.11
2022-08-23T16:28:45.786Z,56.11
2022-08-23T16:31:13.946Z,55.64
2022-08-23T16:33:42.137Z,55.77
2022-08-23T16:36:10.463Z,55.95
2022-08-23T16:38:38.751Z,55.91
2022-08-23T16:41:07.487Z,56.07
2022-08-23T16:43:35.574Z,55.84
2022-08-23T16:46:06.366Z,55.86
2022-08-23T16:48:34.634Z,55.81
2022-08-23T16:51:02.733Z,56.07
2022-08-23T16:53:30.921Z,55.96
2022-08-23T16:55:59.056Z,56.13
2022-08-23T16:58:27.231Z,55.97
2022-08-23T17:00:55.392Z,55.93
2022-08-23T17:03:27.178Z,56.21
2022-08-23T17:05:55.473Z,55.86
2022-08-23T17:08:23.544Z,56.02
2022-08-23T17:10:51.684Z,55.91
2022-08-23T17:13:19.811Z,56.07
2022-08-23T17:15:47.994Z,55.86
2022-08-23T17:18:16.143Z,56.05
2022-08-23T17:20:45.753Z,56.06
2022-08-23T17:23:14.024Z,55.93
2022-08-23T17:25:47.834Z,56.07
2022-08-23T17:28:16.402Z,56.40
2022-08-23T17:30:44.654Z,55.96
2022-08-23T17:33:12.902Z,56.10
2022-08-23T17:35:41.310Z,56.33
2022-08-23T17:38:10.861Z,56.02
2022-08-23T17:40:40.181Z,55.93
2022-08-23T17:43:08.394Z,56.16
2022-08-23T17:45:41.549Z,56.46
2022-08-23T17:48:09.732Z,56.29
2022-08-23T17:50:38.170Z,56.37
2022-08-23T17:53:06.338Z,56.33
2022-08-23T17:55:36.542Z,56.56
2022-08-23T17:58:05.194Z,56.42
2022-08-23T18:00:33.581Z,56.48
2022-08-23T18:03:01.985Z,56.46
2022-08-23T18:05:31.021Z,56.45
2022-08-23T18:07:59.227Z,56.41
2022-08-23T18:10:27.698Z,56.76
2022-08-23T18:12:58.587Z,56.62
2022-08-23T18:15:27.057Z,56.60
2022-08-23T18:17:58.362Z,56.59
2022-08-23T18:20:26.987Z,56.34
2022-08-23T18:22:55.763Z,56.57
2022-08-23T18:25:24.001Z,56.52
2022-08-23T18:28:11.281Z,56.71
2022-08-23T18:30:47.782Z,56.57
2022-08-23T18:33:16.158Z,56.77
2022-08-23T18:35:46.914Z,56.92
2022-08-23T18:38:15.050Z,57.14
2022-08-23T18:40:49.095Z,56.89
2022-08-23T18:43:18.470Z,57.21
2022-08-23T18:45:48.701Z,56.91
2022-08-23T18:48:16.934Z,56.99
2022-08-23T18:50:45.171Z,56.70
2022-08-23T18:53:13.622Z,56.89
2022-08-23T18:55:41.831Z,56.82
2022-08-23T18:58:10.168Z,56.77
2022-08-23T19:00:38.697Z,57.01
2022-08-23T19:03:08.417Z,57.00
2022-08-23T19:05:41.665Z,57.02
2022-08-23T19:08:10.789Z,56.99
2022-08-23T19:10:39.090Z,57.08
2022-08-23T19:13:09.091Z,57.05
2022-08-23T19:15:38.322Z,56.81
2022-08-23T19:18:08.235Z,57.01
2022-08-23T19:20:37.442Z,57.21
2022-08-23T19:23:05.714Z,57.19
2022-08-23T19:25:38.632Z,57.13
2022-08-23T19:28:07.287Z,57.17
2022-08-23T19:30:35.767Z,57.17
2022-08-23T19:33:04.241Z,57.02
2022-08-23T19:35:34.051Z,57.39
2022-08-23T19:38:02.331Z,56.93
2022-08-23T19:40:30.717Z,57.11
2022-08-23T19:43:00.492Z,57.14
2022-08-23T19:45:31.787Z,57.11
2022-08-23T19:48:00.855Z,57.37
2022-08-23T19:50:29.344Z,57.14
2022-08-23T19:52:58.883Z,57.14
2022-08-23T19:55:27.534Z,57.20
2022-08-23T19:57:55.782Z,57.02
2022-08-23T20:00:24.143Z,57.02
2022-08-23T20:02:52.450Z,57.09
2022-08-23T20:05:20.937Z,57.24
2022-08-23T20:07:49.214Z,57.42
2022-08-23T20:10:18.803Z,57.19
2022-08-23T20:12:46.966Z,57.08
2022-08-23T20:15:15.394Z,56.98
2022-08-23T20:17:43.566Z,57.00
2022-08-23T20:20:13.805Z,57.14
2022-08-23T20:23:14.181Z,57.17
2022-08-23T20:25:43.790Z,57.02
2022-08-23T20:28:12.419Z,57.15
2022-08-23T20:30:40.662Z,57.27
2022-08-23T20:33:09.142Z,57.04
2022-08-23T20:35:37.383Z,57.30
2022-08-23T20:38:06.054Z,56.87
2022-08-23T20:40:34.288Z,57.11
2022-08-23T20:43:04.534Z,56.97
2022-08-23T20:45:33.439Z,57.06
2022-08-23T20:48:01.573Z,56.95
2022-08-23T20:50:29.738Z,57.12
2022-08-23T20:52:57.990Z,57.07
2022-08-23T20:55:26.208Z,57.04
2022-08-23T20:57:54.424Z,57.03
2022-08-23T21:00:24.007Z,57.11
2022-08-23T21:02:52.149Z,57.12
2022-08-23T21:05:20.287Z,57.01
2022-08-23T21:07:48.434Z,57.09
2022-08-23T21:10:16.612Z,56.95
2022-08-23T21:12:45.646Z,56.83
2022-08-23T21:15:13.778Z,56.95
2022-08-23T21:17:43.281Z,56.97
2022-08-23T21:20:15.882Z,56.80
2022-08-23T21:22:43.959Z,56.67
2022-08-23T21:25:12.386Z,56.76
2022-08-23T21:27:40.489Z,56.78
2022-08-23T21:30:09.757Z,56.60
2022-08-23T21:32:37.943Z,56.70
2022-08-23T21:35:08.433Z,56.82
2022-08-23T21:37:36.849Z,56.41
2022-08-23T21:40:05.956Z,56.54
2022-08-23T21:42:34.227Z,56.53
2022-08-23T21:45:03.002Z,56.91
2022-08-23T21:47:31.193Z,56.24
2022-08-23T21:49:59.333Z,56.44
2022-08-23T21:52:28.972Z,56.38
2022-08-23T21:54:57.186Z,56.27
2022-08-23T21:57:25.374Z,56.22
2022-08-23T21:59:53.538Z,56.36
2022-08-23T22:02:21.797Z,56.41
2022-08-23T22:04:50.378Z,56.16
2022-08-23T22:07:18.507Z,56.15
2022-08-23T22:09:48.586Z,56.16
2022-08-23T22:12:16.746Z,56.02
2022-08-23T22:14:45.359Z,56.22
2022-08-23T22:17:16.312Z,56.23
2022-08-23T22:19:44.860Z,55.96
2022-08-23T22:22:14.993Z,55.88
2022-08-23T22:24:43.159Z,55.86
2022-08-23T22:27:13.213Z,55.97
2022-08-23T22:29:41.554Z,55.97
2022-08-23T22:32:13.491Z,56.02
2022-08-23T22:34:41.608Z,56.27
2022-08-23T22:37:09.714Z,55.95
2022-08-23T22:39:37.799Z,55.79
2022-08-23T22:42:06.415Z,55.77
2022-08-23T22:44:39.629Z,55.87
2022-08-23T22:47:07.935Z,55.74
2022-08-23T22:49:36.083Z,55.59
2022-08-23T22:52:04.693Z,55.60
2022-08-23T22:54:32.835Z,55.51
2022-08-23T22:57:01.102Z,55.82
2022-08-23T22:59:33.019Z,55.70
2022-08-23T23:02:04.240Z,55.42
2022-08-23T23:04:32.885Z,55.49
2022-08-23T23:07:01.015Z,55.45
2022-08-23T23:09:29.322Z,55.43
2022-08-23T23:11:57.592Z,55.43
2022-08-23T23:14:26.247Z,55.53
2022-08-23T23:16:54.696Z,55.30
2022-08-23T23:19:41.650Z,55.17
2022-08-23T23:22:11.211Z,55.34
2022-08-23T23:24:40.050Z,55.20
2022-08-23T23:27:08.251Z,55.39
2022-08-23T23:29:36.582Z,55.32
2022-08-23T23:32:05.680Z,55.14
2022-08-23T23:34:35.169Z,55.29
2022-08-23T23:37:03.326Z,55.40
2022-08-23T23:39:31.632Z,55.30
2022-08-23T23:41:59.759Z,55.04
2022-08-23T23:44:31.481Z,54.97
2022-08-23T23:47:00.708Z,55.14
2022-08-23T23:49:31.971Z,55.31
2022-08-23T23:52:03.639Z,55.14
2022-08-23T23:54:32.117Z,54.93
2022-08-23T23:57:01.037Z,55.23
2022-08-23T23:59:29.149Z,55.12
